Latest Weather Observations for Willis Island

IDQ60801

Issued at 6:02 am EST Monday 29 May 2017 (issued every 30 minutes, with the page automatically refreshed every 10 minutes)

About weather observations | Map of weather stations | Latest weather observations for QLD | Other Formats
Station Details ID: 200283 Name: WILLIS ISLAND Lat: -16.29 Lon: 149.97 Height: 9.29 m
Data from the previous 72 hours. | See also: Recent months at Willis Island
Date/Time
EST
Temp
°C
App
Temp
°C
Dew
Point
°C
Rel
Hum
%
Delta-T
°C
Wind Press
QNH
hPa
Press
MSL
hPa
Rain since
9am
mm
Dir  Spd
km/h
Gust
km/h
Spd
kts
Gust
kts
29/06:00am 25.2 22.8 20.3 74 3.2 SSE 33 39 18 21 1014.6 1014.5 0.0
29/05:30am 25.1 22.7 20.0 73 3.3 SE 32 39 17 21 1014.4 1014.3 0.0
29/05:00am 25.2 22.7 20.1 73 3.3 SSE 33 39 18 21 1014.3 1014.2 0.0
29/04:30am 25.1 22.6 19.8 72 3.4 SSE 32 35 17 19 1014.3 1014.2 0.0
29/04:00am 25.0 22.8 19.6 72 3.5 SSE 30 35 16 19 1014.2 1014.1 0.0
29/03:30am 25.2 22.6 20.0 73 3.4 SSE 33 39 18 21 1014.5 1014.4 0.0
29/03:00am 25.3 23.0 20.2 73 3.3 SSE 32 35 17 19 1014.8 1014.7 0.0
29/02:30am 25.3 23.0 20.1 73 3.4 SE 32 35 17 19 1014.8 1014.7 0.0
29/02:00am 25.2 22.5 19.3 70 3.8 SE 32 35 17 19 1015.0 1014.9 0.0
29/01:30am 25.3 22.7 19.9 72 3.5 SE 33 39 18 21 1015.1 1015.0 0.0
29/01:00am 25.5 23.7 20.4 73 3.3 SE 30 35 16 19 1015.1 1015.0 0.0
29/12:30am 25.4 23.1 20.2 73 3.4 SE 32 35 17 19 1015.4 1015.3 0.0
29/12:00am 25.2 22.9 19.4 70 3.7 SE 30 35 16 19 1015.4 1015.3 0.0
 
Date/Time
EST
Temp
°C
App
Temp
°C
Dew
Point
°C
Rel
Hum
%
Delta-T
°C
Wind Press
QNH
hPa
Press
MSL
hPa
Rain since
9am
mm
Dir  Spd
km/h
Gust
km/h
Spd
kts
Gust
kts
28/11:30pm 25.3 23.0 19.4 70 3.8 SE 30 35 16 19 1015.6 1015.5 0.0
28/11:00pm 25.3 22.3 18.7 67 4.2 SE 32 37 17 20 1015.6 1015.5 0.0
28/10:30pm 25.4 23.2 19.5 70 3.8 SE 30 33 16 18 1015.9 1015.8 0.0
28/10:00pm 25.4 23.3 19.7 70 3.7 SE 30 35 16 19 1016.1 1016.0 0.0
28/09:30pm 25.4 23.2 19.5 70 3.8 SE 30 33 16 18 1016.1 1016.0 0.0
28/09:00pm 25.4 23.3 19.7 70 3.7 SE 30 33 16 18 1016.0 1015.9 0.0
28/08:30pm 25.4 23.2 19.5 70 3.8 SE 30 35 16 19 1015.8 1015.7 0.0
28/08:00pm 25.4 23.6 19.5 70 3.8 SE 28 33 15 18 1015.6 1015.5 0.0
28/07:30pm 25.4 23.9 19.5 70 3.8 SE 26 30 14 16 1015.5 1015.4 0.0
28/07:00pm 25.4 23.8 19.3 69 3.9 SE 26 30 14 16 1015.2 1015.1 0.0
28/06:30pm 25.5 23.6 19.3 68 4.0 SE 28 32 15 17 1014.8 1014.7 0.0
28/06:00pm 25.4 23.4 19.2 68 4.0 SE 28 32 15 17 1014.4 1014.3 0.0
28/05:30pm 25.5 23.5 19.1 67 4.1 SE 28 30 15 16 1014.2 1014.1 0.0
28/05:00pm 25.9 24.3 19.2 66 4.3 SE 26 30 14 16 1013.9 1013.8 0.0
28/04:30pm 26.3 24.8 19.5 66 4.4 SE 26 32 14 17 1013.8 1013.7 0.0
28/04:00pm 26.7 25.3 19.6 65 4.6 SE 26 32 14 17 1013.7 1013.6 0.0
28/03:30pm 27.2 26.0 20.0 64 4.7 ESE 26 30 14 16 1013.6 1013.5 0.0
28/03:00pm 27.6 26.3 19.9 63 5.0 SE 26 30 14 16 1013.6 1013.5 0.0
28/02:30pm 27.7 26.0 19.9 62 5.1 ESE 28 32 15 17 1013.6 1013.5 0.0
28/02:00pm 27.8 26.1 19.8 61 5.2 SE 28 33 15 18 1013.6 1013.5 0.0
28/01:30pm 27.7 25.5 19.5 61 5.3 SE 30 33 16 18 1013.6 1013.5 0.0
28/01:00pm 28.1 26.1 20.0 61 5.3 ESE 30 35 16 19 1013.8 1013.7 0.0
28/12:30pm 28.4 26.3 20.5 62 5.2 ESE 32 35 17 19 1014.2 1014.1 0.0
28/12:00pm 28.3 25.9 19.9 60 5.5 ESE 32 35 17 19 1014.5 1014.4 0.0
28/11:30am 27.2 25.3 20.2 65 4.6 SE 30 35 16 19 1014.7 1014.6 0.0
28/11:00am 27.6 25.4 20.4 65 4.7 SE 32 37 17 20 1014.8 1014.7 0.0
28/10:30am 27.6 25.4 20.4 65 4.7 SE 32 39 17 21 1015.1 1015.0 0.0
28/10:00am 27.3 25.1 20.4 66 4.5 SE 32 37 17 20 1015.4 1015.3 0.0
28/09:30am 27.6 25.7 20.9 67 4.4 SE 32 39 17 21 1015.5 1015.4 0.0
28/09:00am 27.1 24.8 20.2 66 4.5 ESE 32 39 17 21 1015.3 1015.2 0.0
28/08:30am 26.8 23.7 19.7 65 4.6 ESE 35 41 19 22 1015.2 1015.1 0.0
28/08:00am 26.2 23.3 20.1 69 4.0 SE 35 39 19 21 1015.0 1014.9 0.0
28/07:30am 25.6 22.0 19.4 68 4.0 SE 37 43 20 23 1014.6 1014.5 0.0
28/07:00am 25.4 22.4 19.8 71 3.6 SE 35 41 19 22 1014.4 1014.3 0.0
28/06:30am 25.3 22.3 19.9 72 3.5 SE 35 41 19 22 1014.3 1014.2 0.0
28/06:00am 25.1 22.2 19.3 70 3.7 SE 33 41 18 22 1014.0 1013.9 0.0
28/05:30am 25.0 22.4 19.6 72 3.5 SE 32 39 17 21 1013.9 1013.8 0.0
28/05:00am 24.9 21.8 18.8 69 3.9 SE 33 39 18 21 1013.9 1013.8 0.0
28/04:30am 25.1 22.7 19.2 70 3.8 SE 30 35 16 19 1014.0 1013.9 0.0
28/04:00am 25.0 21.5 17.5 63 4.7 SE 32 39 17 21 1014.1 1014.0 0.0
28/03:30am 24.9 21.4 17.9 65 4.4 SE 33 39 18 21 1014.2 1014.1 0.0
28/03:00am 25.0 21.6 18.2 66 4.3 SE 33 39 18 21 1014.4 1014.3 0.0
28/02:30am 25.1 21.6 17.9 64 4.5 SE 33 41 18 22 1014.5 1014.4 0.0
28/02:00am 25.2 21.4 18.2 65 4.4 SE 35 43 19 23 1014.7 1014.6 0.0
28/01:30am 25.2 21.2 17.5 62 4.8 SE 35 41 19 22 1015.3 1015.2 0.0
28/01:00am 25.3 21.5 18.0 64 4.6 ESE 35 43 19 23 1015.6 1015.5 0.0
28/12:30am 25.3 21.4 17.8 63 4.7 SE 35 41 19 22 1015.9 1015.8 0.0
28/12:00am 25.3 21.2 17.3 61 5.0 ESE 35 41 19 22 1016.1 1016.0 0.0
 
Date/Time
EST
Temp
°C
App
Temp
°C
Dew
Point
°C
Rel
Hum
%
Delta-T
°C
Wind Press
QNH
hPa
Press
MSL
hPa
Rain since
9am
mm
Dir  Spd
km/h
Gust
km/h
Spd
kts
Gust
kts
27/11:30pm 25.4 21.6 18.1 64 4.6 ESE 35 39 19 21 1016.2 1016.1 0.0
27/11:00pm 25.5 21.4 18.2 64 4.6 ESE 37 43 20 23 1016.4 1016.3 0.0
27/10:30pm 25.4 20.9 17.4 61 5.0 ESE 37 44 20 24 1016.5 1016.4 0.0
27/10:00pm 25.5 21.0 17.3 60 5.1 ESE 37 43 20 23 1016.5 1016.4 0.0
27/09:30pm 25.5 21.0 17.3 60 5.1 ESE 37 43 20 23 1016.4 1016.3 0.0
27/09:00pm 25.6 21.2 17.6 61 5.0 ESE 37 43 20 23 1016.2 1016.1 0.0
27/08:30pm 25.6 21.5 18.2 63 4.7 ESE 37 43 20 23 1016.1 1016.0 0.0
27/08:00pm 25.5 21.6 17.9 63 4.8 SE 35 41 19 22 1015.9 1015.8 0.0
27/07:30pm 25.6 22.0 18.5 65 4.5 SE 35 39 19 21 1015.4 1015.3 0.0
27/07:00pm 25.6 21.7 17.8 62 4.9 ESE 35 41 19 22 1015.0 1014.9 0.0
27/06:30pm 25.6 21.8 17.2 59 5.2 ESE 33 39 18 21 1014.6 1014.5 0.0
27/06:00pm 25.6 21.8 17.1 59 5.3 ESE 33 39 18 21 1014.3 1014.2 0.0
27/05:30pm 25.5 21.8 17.5 61 5.0 ESE 33 39 18 21 1014.1 1014.0 0.0
27/05:00pm 25.7 21.9 16.6 57 5.6 ESE 32 37 17 20 1013.9 1013.8 0.0
27/04:30pm 25.8 22.3 17.5 60 5.2 ESE 32 35 17 19 1013.6 1013.5 0.0
27/04:00pm 26.3 22.7 17.3 57 5.6 ESE 32 37 17 20 1013.3 1013.2 0.0
27/03:30pm 26.8 22.8 16.8 54 6.2 SE 33 39 18 21 1013.2 1013.1 0.0
27/03:00pm 27.2 23.8 17.7 56 6.0 SE 32 35 17 19 1013.2 1013.1 0.0
27/02:30pm 27.7 25.5 18.6 57 5.8 ESE 28 33 15 18 1013.3 1013.2 0.0
27/02:00pm 27.4 24.5 17.9 56 6.0 ESE 30 33 16 18 1013.4 1013.3 0.0
27/01:30pm 27.9 25.1 17.4 52 6.6 ESE 28 32 15 17 1013.7 1013.6 0.0
27/01:00pm 28.0 25.7 17.5 52 6.6 ESE 26 32 14 17 1014.2 1014.1 0.0
27/12:30pm 28.1 25.9 17.8 53 6.5 ESE 26 32 14 17 1014.8 1014.7 0.0
27/12:00pm 27.8 25.3 17.1 52 6.7 ESE 26 32 14 17 1015.2 1015.1 0.0
27/11:30am 27.9 24.7 16.4 49 7.1 ESE 28 32 15 17 1015.5 1015.4 0.0
27/11:00am 28.1 25.7 17.3 52 6.8 ESE 26 32 14 17 1015.8 1015.7 0.0
27/10:30am 27.6 25.0 16.8 51 6.7 ESE 26 32 14 17 1016.1 1016.0 0.0
27/10:00am 28.0 25.9 18.1 55 6.3 ESE 26 30 14 16 1016.4 1016.3 0.0
27/09:30am 27.4 24.2 16.2 50 6.9 ESE 28 32 15 17 1016.4 1016.3 0.0
27/09:00am 27.2 23.8 16.7 52 6.5 ESE 30 35 16 19 1016.3 1016.2 0.0
27/08:30am 26.7 23.1 17.3 56 5.9 ESE 32 39 17 21 1016.1 1016.0 0.0
27/08:00am 26.5 23.0 16.4 53 6.2 ESE 30 35 16 19 1015.9 1015.8 0.0
27/07:30am 26.0 22.9 17.4 59 5.4 ESE 30 35 16 19 1015.7 1015.6 0.0
27/07:00am 25.3 21.6 16.9 59 5.2 ESE 32 35 17 19 1015.5 1015.4 0.0
27/06:30am 25.2 21.6 17.3 61 4.9 ESE 32 35 17 19 1015.2 1015.1 0.0
27/06:00am 25.3 21.9 17.8 63 4.7 ESE 32 35 17 19 1014.8 1014.7 0.0
27/05:30am 25.2 21.9 17.9 64 4.6 ESE 32 37 17 20 1014.6 1014.5 0.0
27/05:00am 25.0 21.8 18.7 68 4.0 SE 33 39 18 21 1014.5 1014.4 0.0
27/04:30am 25.1 21.3 19.0 69 3.9 ESE 37 43 20 23 1014.3 1014.2 0.0
27/04:00am 25.1 21.8 19.2 70 3.8 SE 35 41 19 22 1014.2 1014.1 0.0
27/03:30am 25.2 22.5 19.3 70 3.8 SE 32 37 17 20 1014.4 1014.3 0.0
27/03:00am 25.3 22.2 18.3 65 4.4 ESE 32 39 17 21 1014.5 1014.4 0.0
27/02:30am 25.5 22.4 18.9 67 4.2 SE 33 41 18 22 1014.6 1014.5 0.0
27/02:00am 25.4 22.3 18.5 65 4.4 SE 32 37 17 20 1014.8 1014.7 0.0
27/01:30am 25.4 21.8 18.6 66 4.3 SE 35 44 19 24 1015.0 1014.9 0.0
27/01:00am 25.4 21.7 18.3 65 4.5 ESE 35 43 19 23 1015.2 1015.1 0.0
27/12:30am 25.5 21.1 17.5 61 5.0 ESE 37 43 20 23 1015.4 1015.3 0.0
27/12:00am 25.4 20.7 17.7 62 4.8 ESE 39 44 21 24 1015.4 1015.3 0.0
 
Date/Time
EST
Temp
°C
App
Temp
°C
Dew
Point
°C
Rel
Hum
%
Delta-T
°C
Wind Press
QNH
hPa
Press
MSL
hPa
Rain since
9am
mm
Dir  Spd
km/h
Gust
km/h
Spd
kts
Gust
kts
26/11:30pm 25.5 21.0 18.2 64 4.6 ESE 39 46 21 25 1015.4 1015.3 0.0
26/11:00pm 25.7 21.6 18.3 63 4.7 ESE 37 43 20 23 1015.6 1015.5 0.0
26/10:30pm 25.7 21.7 18.4 64 4.6 ESE 37 44 20 24 1015.8 1015.7 0.0
26/10:00pm 25.7 21.4 17.7 61 5.0 ESE 37 43 20 23 1015.9 1015.8 0.0
26/09:30pm 25.8 21.4 17.5 60 5.2 ESE 37 44 20 24 1015.9 1015.8 0.0
26/09:00pm 25.8 22.0 18.0 62 4.9 ESE 35 43 19 23 1015.7 1015.6 0.0
26/08:30pm 25.9 22.0 17.8 61 5.1 ESE 35 41 19 22 1015.6 1015.5 0.0
26/08:00pm 25.8 21.5 17.7 61 5.1 ESE 37 43 20 23 1015.2 1015.1 0.0
26/07:30pm 25.7 21.1 18.1 63 4.8 ESE 39 44 21 24 1014.9 1014.8 0.0
26/07:00pm 25.8 21.5 18.6 64 4.6 ESE 39 48 21 26 1014.5 1014.4 0.0
26/06:30pm 25.7 21.2 18.3 63 4.7 ESE 39 46 21 25 1014.0 1013.9 0.0
26/06:00pm 25.8 20.8 17.9 61 5.0 ESE 41 48 22 26 1013.6 1013.5 0.0
26/05:30pm 25.7 21.1 17.9 62 4.9 ESE 39 46 21 25 1013.4 1013.3 0.0
26/05:00pm 25.8 21.0 18.4 63 4.7 ESE 41 50 22 27 1013.2 1013.1 0.0
26/04:30pm 26.1 21.2 18.2 61 5.0 ESE 41 46 22 25 1013.1 1013.0 0.0
26/04:00pm 26.2 21.7 18.3 61 5.0 ESE 39 44 21 24 1013.0 1012.9 0.0
26/03:30pm 26.4 21.7 18.6 62 5.0 ESE 41 48 22 26 1012.9 1012.8 0.0
26/03:00pm 26.5 21.4 18.5 61 5.1 SE 43 50 23 27 1013.0 1012.9 0.0
26/02:30pm 27.0 22.6 19.4 63 4.9 SE 41 48 22 26 1013.1 1013.0 0.0
26/02:00pm 27.0 21.9 18.7 60 5.3 SE 43 50 23 27 1013.1 1013.0 0.0
26/01:30pm 27.3 22.6 18.7 59 5.5 ESE 41 46 22 25 1013.5 1013.4 0.0
26/01:00pm 27.4 22.6 18.3 57 5.8 ESE 41 48 22 26 1013.9 1013.8 0.0
26/12:30pm 27.1 22.4 18.7 60 5.4 ESE 41 46 22 25 1014.3 1014.2 0.0
26/12:00pm 27.8 23.8 19.3 60 5.5 ESE 39 46 21 25 1014.8 1014.7 0.0
26/11:30am 27.5 22.9 18.8 59 5.6 ESE 41 48 22 26 1015.1 1015.0 0.0
26/11:00am 27.4 22.4 18.8 59 5.5 ESE 43 50 23 27 1015.4 1015.3 0.0
26/10:30am 27.5 22.9 18.8 59 5.6 ESE 41 50 22 27 1015.7 1015.6 0.0
26/10:00am 27.4 22.8 18.8 59 5.5 ESE 41 50 22 27 1015.8 1015.7 0.0
26/09:30am 27.2 22.4 19.3 62 5.1 ESE 43 48 23 26 1015.9 1015.8 0.0
26/09:00am 26.9 22.1 18.4 59 5.4 ESE 41 48 22 26 1015.7 1015.6 2.6
26/08:30am 26.7 21.6 18.5 60 5.2 ESE 43 50 23 27 1015.7 1015.6 2.6
26/08:00am 26.3 20.8 18.1 60 5.2 ESE 44 54 24 29 1015.4 1015.3 2.6
26/07:30am 25.8 20.6 18.7 65 4.5 ESE 44 50 24 27 1015.2 1015.1 2.6
26/07:00am 25.5 20.0 18.2 64 4.6 ESE 44 52 24 28 1014.8 1014.7 2.6
26/06:30am 25.3 19.7 17.8 63 4.7 ESE 44 50 24 27 1014.5 1014.4 2.6

Other Formats:

Comma delimited format used in spreadsheet applications
http://www.bom.gov.au/fwo/IDQ60801/IDQ60801.94299.axf

JavaScript Object Notation format (JSON) in row-major order
http://www.bom.gov.au/fwo/IDQ60801/IDQ60801.94299.json